Queen Of Nanaimo — VCNX — position and weather

sailwx.info

Track history (hours):
 
Tides and Currents Weather Stations Pressure Air Temp Water Temp Dewpoint Dewpoint Depression Visibility Wind Speed Wind Dir Waves Ship Positions

Queen Of Nanaimo

Last reported at 2015-Jan-27 00:33 UTC. Time now 2015-Jan-27 01:12 UTC.
Position N 48°51' W 123°20'.

Length 130 m; draft 4 m.

Type: Ship. MMSI: 316001254.

Date/timePositionNaut miles runAvg speedWind from/ knotsBaromVisibWave heightAir tempDewpointWater temp
2015-Jan-27 00:33N 48°51' W 123°20'3 3.5
2015-Jan-26 23:33N 48°50' W 123°25'2 0.8
2015-Jan-26 21:19N 48°51' W 123°27'6 7.7
2015-Jan-26 20:33N 48°48' W 123°19'4 3.7
2015-Jan-26 19:33N 48°51' W 123°21'8 8.1
2015-Jan-26 18:33N 48°57' W 123°13'4 4.3
2015-Jan-26 17:33N 49°00' W 123°08'1010.0
2015-Jan-26 16:33N 48°53' W 123°18'2 2.4
2015-Jan-26 15:33N 48°51' W 123°20'4 3.8
2015-Jan-26 14:33N 48°51' W 123°26'1 1.0
2015-Jan-26 13:33N 48°51' W 123°27'0 0.0
2015-Jan-26 12:33N 48°51' W 123°27'0 0.0
2015-Jan-26 11:33N 48°51' W 123°27'0 0.0
2015-Jan-26 10:33N 48°51' W 123°27'0 0.0
2015-Jan-26 09:34N 48°51' W 123°27'0 0.0
2015-Jan-26 08:33N 48°51' W 123°27'0 0.0
2015-Jan-26 07:34N 48°51' W 123°27'3 2.8
2015-Jan-26 06:33N 48°51' W 123°23'1313.2
2015-Jan-26 05:33N 49°00' W 123°08'9 9.0
2015-Jan-26 04:33N 48°53' W 123°17'3 2.6
2015-Jan-26 03:34N 48°52' W 123°19'1211.7
2015-Jan-26 02:34N 49°00' W 123°08'5 5.0
2015-Jan-26 01:33N 48°56' W 123°12'7 7.1
2015-Jan-26 00:33N 48°52' W 123°20'4 4.2
2015-Jan-25 23:33N 48°51' W 123°27'0 0.1
2015-Jan-25 22:33N 48°51' W 123°27'6 6.0
2015-Jan-25 21:33N 48°48' W 123°19'4 3.6
2015-Jan-25 20:33N 48°52' W 123°19'8 8.1
2015-Jan-25 19:34N 48°58' W 123°12'4 3.5
2015-Jan-25 18:33N 49°00' W 123°08'1110.6
2015-Jan-25 17:34N 48°53' W 123°18'2 1.9
2015-Jan-25 16:33N 48°51' W 123°20'4 3.6
2015-Jan-25 15:33N 48°50' W 123°25'2 1.9
2015-Jan-25 14:33N 48°51' W 123°27'0 0.0
2015-Jan-25 13:33N 48°51' W 123°27'0 0.0
2015-Jan-25 12:33N 48°51' W 123°27'0 0.0
2015-Jan-25 11:33N 48°51' W 123°27'0 0.0
2015-Jan-25 10:33N 48°51' W 123°27'0 0.0
2015-Jan-25 09:33N 48°51' W 123°27'0 0.0
2015-Jan-25 08:33N 48°51' W 123°27'0 0.0
2015-Jan-25 07:33N 48°51' W 123°27'2 2.0
2015-Jan-25 06:33N 48°51' W 123°24'4 4.0
2015-Jan-25 05:34N 48°53' W 123°18'1010.2
2015-Jan-25 04:33N 49°00' W 123°08'0 0.0
2015-Jan-25 03:33N 49°00' W 123°08'0 0.0
2015-Jan-25 02:34N 49°00' W 123°08'1110.6
2015-Jan-25 01:33N 48°53' W 123°19'4 4.0
2015-Jan-25 00:34N 48°49' W 123°20'5 5.0
2015-Jan-24 23:33N 48°51' W 123°27'0 0.0
2015-Jan-24 22:33N 48°51' W 123°27'1 0.8
2015-Jan-24 21:33N 48°51' W 123°26'1212.0
2015-Jan-24 20:33N 48°58' W 123°11'1 0.8
2015-Jan-24 19:34N 48°57' W 123°11'9 6.0
2015-Jan-24 18:06N 48°52' W 123°21'2 3.2
2015-Jan-24 17:34N 48°53' W 123°19'1110.6
2015-Jan-24 16:33N 49°00' W 123°08'6 6.2
2015-Jan-24 15:33N 48°55' W 123°13'10 9.4
2015-Jan-24 14:32N 48°51' W 123°27'0 0.0
2015-Jan-24 07:21N 48°51' W 123°27'4 3.4
2015-Jan-24 06:04N 48°48' W 123°22'1 2.8
2015-Jan-24 05:33N 48°48' W 123°20'4 4.2
2015-Jan-24 04:33N 48°53' W 123°19'9 9.4
2015-Jan-24 03:33N 48°59' W 123°09'1 1.2
2015-Jan-24 02:33N 49°00' W 123°08'1110.5
2015-Jan-24 01:33N 48°53' W 123°19'2 1.9
2015-Jan-24 00:32N 48°51' W 123°20'3 3.5
2015-Jan-23 23:33N 48°49' W 123°24'3 3.0
2015-Jan-23 22:32N 48°51' W 123°27'0 0.0
2015-Jan-23 21:30N 48°51' W 123°27'6 6.3
2015-Jan-23 20:33N 48°48' W 123°19'4 3.6
2015-Jan-23 19:33N 48°52' W 123°19'9 8.8
2015-Jan-23 18:33N 48°59' W 123°11'3 2.6
2015-Jan-23 17:34N 49°00' W 123°08'1010.4
2015-Jan-23 16:34N 48°53' W 123°18'2 2.0
2015-Jan-23 15:31N 48°51' W 123°20'3 3.5
2015-Jan-23 14:31N 48°50' W 123°25'1 1.5
2015-Jan-23 13:33N 48°51' W 123°27'0 0.0
2015-Jan-23 12:05N 48°51' W 123°27'0 0.0
2015-Jan-23 11:28N 48°51' W 123°27'0 0.0
2015-Jan-23 07:33N 48°51' W 123°27'1 0.4
2015-Jan-23 06:13N 48°51' W 123°26'5 7.5
2015-Jan-23 05:30N 48°48' W 123°19'5 5.1
2015-Jan-23 04:33N 48°53' W 123°19'9 9.0
2015-Jan-23 03:33N 48°59' W 123°09'2 1.6
2015-Jan-23 02:33N 49°00' W 123°08'1110.5
2015-Jan-23 01:32N 48°53' W 123°19'2 1.9
2015-Jan-23 00:30N 48°51' W 123°20'4 3.6
2015-Jan-22 23:28N 48°50' W 123°25'1 0.7
2015-Jan-22 21:29N 48°51' W 123°27'6 5.7
2015-Jan-22 20:25N 48°48' W 123°19'4 4.2
2015-Jan-22 19:33N 48°52' W 123°19'8 8.0
2015-Jan-22 18:33N 48°58' W 123°12'4 3.5
2015-Jan-22 17:33N 49°00' W 123°08'1110.7
2015-Jan-22 16:33N 48°53' W 123°19'2 2.1
2015-Jan-22 15:30N 48°51' W 123°20'3 3.4
2015-Jan-22 14:31N 48°50' W 123°25'1 1.1
2015-Jan-22 13:26N 48°51' W 123°27'0 0.0
2015-Jan-22 12:30N 48°51' W 123°27'0 0.0
2015-Jan-22 11:15N 48°51' W 123°27'0 0.0
2015-Jan-22 10:30N 48°51' W 123°27'0 0.0
2015-Jan-22 09:15N 48°51' W 123°27'0 0.0
2015-Jan-22 08:33N 48°51' W 123°27'0 0.0
2015-Jan-22 07:28N 48°51' W 123°27'0 0.0
2015-Jan-22 06:31N 48°51' W 123°27'0 0.0
2015-Jan-22 04:24N 48°51' W 123°27'0 0.0
2015-Jan-22 03:33N 48°51' W 123°27'0 0.0
2015-Jan-22 02:33N 48°51' W 123°27'0 0.0
2015-Jan-22 00:30N 48°51' W 123°27'0 0.0
2015-Jan-21 20:31N 48°51' W 123°27'0 0.0
2015-Jan-21 14:11N 48°51' W 123°27'0 0.0
2015-Jan-21 08:20N 48°51' W 123°27'0 0.0
2015-Jan-21 07:29N 48°51' W 123°27'0 0.1
2015-Jan-21 06:14N 48°51' W 123°27'6 7.6
2015-Jan-21 05:28N 48°48' W 123°19'4 3.9
2015-Jan-21 04:34N 48°52' W 123°19'9 9.1
2015-Jan-21 03:33N 48°59' W 123°10'2 2.3
2015-Jan-21 02:33N 49°00' W 123°08'1110.7
2015-Jan-21 01:33N 48°53' W 123°19'2 1.8
2015-Jan-21 00:30N 48°51' W 123°20'3 3.5
2015-Jan-20 23:33N 48°49' W 123°24'3 2.6
2015-Jan-20 22:19N 48°51' W 123°27'0 0.0
2015-Jan-20 21:28N 48°51' W 123°27'6 6.6
2015-Jan-20 20:32N 48°48' W 123°19'3 3.4
2015-Jan-20 19:33N 48°51' W 123°21'8 7.7
2015-Jan-20 18:33N 48°57' W 123°13'5 5.0
2015-Jan-20 17:34N 49°00' W 123°08'1010.3
2015-Jan-20 16:33N 48°53' W 123°18'2 2.1
2015-Jan-20 15:32N 48°51' W 123°20'4 3.6
2015-Jan-20 14:33N 48°50' W 123°25'2 1.8
2015-Jan-20 13:33N 48°51' W 123°27'0 0.0
2015-Jan-20 12:20N 48°51' W 123°27'0 0.0
2015-Jan-20 11:25N 48°51' W 123°27'0 0.0
2015-Jan-20 10:33N 48°51' W 123°27'0 0.0
2015-Jan-20 09:32N 48°51' W 123°27'0 0.0
2015-Jan-20 08:33N 48°51' W 123°27'0 0.0
2015-Jan-20 07:33N 48°51' W 123°27'1 0.9
2015-Jan-20 06:33N 48°51' W 123°26'4 3.9
2015-Jan-20 05:31N 48°51' W 123°20'7 6.9
2015-Jan-20 04:33N 48°56' W 123°14'4 3.8
2015-Jan-20 03:33N 48°58' W 123°09'10 9.7
2015-Jan-20 02:32N 48°52' W 123°20'1 0.6
2015-Jan-20 01:24N 48°51' W 123°20'0 0.1
2015-Jan-20 00:32N 48°51' W 123°20'3 3.2
2015-Jan-19 23:33N 48°49' W 123°24'3 2.7
2015-Jan-19 22:33N 48°51' W 123°27'0 0.0
2015-Jan-19 21:25N 48°51' W 123°27'6 7.0
2015-Jan-19 20:33N 48°48' W 123°19'4 3.8
2015-Jan-19 19:32N 48°52' W 123°20'8 7.8
2015-Jan-19 18:34N 48°57' W 123°12'4 4.4
2015-Jan-19 17:33N 49°00' W 123°08'10 9.8
2015-Jan-19 16:33N 48°53' W 123°18'3 2.6
2015-Jan-19 15:32N 48°51' W 123°20'4 3.7
2015-Jan-19 14:30N 48°51' W 123°26'1 0.9
2015-Jan-19 13:33N 48°51' W 123°27'0 0.0
2015-Jan-19 12:30N 48°51' W 123°27'0 0.0
2015-Jan-19 11:10N 48°51' W 123°27'0 0.0
2015-Jan-19 10:32N 48°51' W 123°27'0 0.0
2015-Jan-19 08:23N 48°51' W 123°27'0 0.0
2015-Jan-19 07:30N 48°51' W 123°27'4 4.3
2015-Jan-19 06:33N 48°52' W 123°21'1212.1
2015-Jan-19 05:33N 49°00' W 123°08'8 7.6
2015-Jan-19 04:33N 48°54' W 123°15'4 3.9
2015-Jan-19 03:33N 48°52' W 123°19'1211.5
2015-Jan-19 02:33N 49°00' W 123°08'6 5.5
2015-Jan-19 01:33N 48°56' W 123°13'7 7.2
2015-Jan-19 00:33N 48°51' W 123°21'4 3.1
2015-Jan-18 23:18N 48°51' W 123°27'0 0.0
2015-Jan-18 22:33N 48°51' W 123°27'6 6.1
2015-Jan-18 21:33N 48°48' W 123°19'4 3.9
2015-Jan-18 20:33N 48°52' W 123°20'8 7.9
2015-Jan-18 19:34N 48°58' W 123°13'4 4.2
2015-Jan-18 18:33N 49°00' W 123°08'10 9.8
2015-Jan-18 17:33N 48°53' W 123°18'3 2.6
2015-Jan-18 16:32N 48°51' W 123°20'4 3.7
2015-Jan-18 15:32N 48°50' W 123°25'1 0.4
2015-Jan-18 12:31N 48°51' W 123°27'0 0.0
2015-Jan-18 10:22N 48°51' W 123°27'0 0.0
2015-Jan-18 09:32N 48°51' W 123°27'0 0.0
2015-Jan-18 07:30N 48°51' W 123°27'5 4.6
2015-Jan-18 06:30N 48°51' W 123°20'2 2.3
2015-Jan-18 05:34N 48°53' W 123°18'1010.3
2015-Jan-18 04:33N 49°00' W 123°08'0 0.0
2015-Jan-18 03:34N 49°00' W 123°08'3 2.6
2015-Jan-18 02:33N 48°58' W 123°09'8 8.4
2015-Jan-18 01:33N 48°52' W 123°18'4 4.4
2015-Jan-18 00:33N 48°48' W 123°19'6 2.7
2015-Jan-17 22:20N 48°51' W 123°27'0 0.4
2015-Jan-17 21:32N 48°51' W 123°26'1111.4
2015-Jan-17 20:33N 48°58' W 123°13'2 2.4
2015-Jan-17 19:34N 48°59' W 123°09'1010.3
2015-Jan-17 18:33N 48°51' W 123°20'2 1.9
2015-Jan-17 17:33N 48°53' W 123°19'1110.7
2015-Jan-17 16:34N 49°00' W 123°08'5 4.6
2015-Jan-17 15:34N 48°57' W 123°12'1110.9
2015-Jan-17 14:33N 48°51' W 123°27'0 0.1
2015-Jan-17 13:31N 48°51' W 123°27'0 0.0
2015-Jan-17 12:32N 48°51' W 123°27'0 0.0
2015-Jan-17 11:31N 48°51' W 123°27'0 0.0
2015-Jan-17 10:27N 48°51' W 123°27'0 0.0
2015-Jan-17 09:27N 48°51' W 123°27'0 0.0
2015-Jan-17 08:32N 48°51' W 123°27'0 0.0
2015-Jan-17 07:30N 48°51' W 123°27'0 0.0
2015-Jan-17 06:31N 48°51' W 123°27'6 6.1
2015-Jan-17 05:33N 48°48' W 123°19'5 4.8
2015-Jan-17 04:33N 48°53' W 123°19'10 9.6
2015-Jan-17 03:33N 48°60' W 123°09'1 1.1
2015-Jan-17 02:33N 49°00' W 123°08'1110.6
2015-Jan-17 01:33N 48°53' W 123°19'  
Track history (hours):
 
Tides and Currents Weather Stations Pressure Air Temp Water Temp Dewpoint Dewpoint Depression Visibility Wind Speed Wind Dir Waves Ship Positions

Queen Of Nanaimo

Last reported at 2015-Jan-27 00:33 UTC. Time now 2015-Jan-27 01:12 UTC.
Position N 48°51' W 123°20'.

Length 130 m; draft 4 m.

Type: Ship. MMSI: 316001254.

Date/timePositionNaut miles runAvg speedWind from/ knotsBaromVisibWave heightAir tempDewpointWater temp
2015-Jan-27 00:33N 48°51' W 123°20'3 3.5
2015-Jan-26 23:33N 48°50' W 123°25'2 0.8
2015-Jan-26 21:19N 48°51' W 123°27'6 7.7
2015-Jan-26 20:33N 48°48' W 123°19'4 3.7
2015-Jan-26 19:33N 48°51' W 123°21'8 8.1
2015-Jan-26 18:33N 48°57' W 123°13'4 4.3
2015-Jan-26 17:33N 49°00' W 123°08'1010.0
2015-Jan-26 16:33N 48°53' W 123°18'2 2.4
2015-Jan-26 15:33N 48°51' W 123°20'4 3.8
2015-Jan-26 14:33N 48°51' W 123°26'1 1.0
2015-Jan-26 13:33N 48°51' W 123°27'0 0.0
2015-Jan-26 12:33N 48°51' W 123°27'0 0.0
2015-Jan-26 11:33N 48°51' W 123°27'0 0.0
2015-Jan-26 10:33N 48°51' W 123°27'0 0.0
2015-Jan-26 09:34N 48°51' W 123°27'0 0.0
2015-Jan-26 08:33N 48°51' W 123°27'0 0.0
2015-Jan-26 07:34N 48°51' W 123°27'3 2.8
2015-Jan-26 06:33N 48°51' W 123°23'1313.2
2015-Jan-26 05:33N 49°00' W 123°08'9 9.0
2015-Jan-26 04:33N 48°53' W 123°17'3 2.6
2015-Jan-26 03:34N 48°52' W 123°19'1211.7
2015-Jan-26 02:34N 49°00' W 123°08'5 5.0
2015-Jan-26 01:33N 48°56' W 123°12'7 7.1
2015-Jan-26 00:33N 48°52' W 123°20'4 4.2
2015-Jan-25 23:33N 48°51' W 123°27'0 0.1
2015-Jan-25 22:33N 48°51' W 123°27'6 6.0
2015-Jan-25 21:33N 48°48' W 123°19'4 3.6
2015-Jan-25 20:33N 48°52' W 123°19'8 8.1
2015-Jan-25 19:34N 48°58' W 123°12'4 3.5
2015-Jan-25 18:33N 49°00' W 123°08'1110.6
2015-Jan-25 17:34N 48°53' W 123°18'2 1.9
2015-Jan-25 16:33N 48°51' W 123°20'4 3.6
2015-Jan-25 15:33N 48°50' W 123°25'2 1.9
2015-Jan-25 14:33N 48°51' W 123°27'0 0.0
2015-Jan-25 13:33N 48°51' W 123°27'0 0.0
2015-Jan-25 12:33N 48°51' W 123°27'0 0.0
2015-Jan-25 11:33N 48°51' W 123°27'0 0.0
2015-Jan-25 10:33N 48°51' W 123°27'0 0.0
2015-Jan-25 09:33N 48°51' W 123°27'0 0.0
2015-Jan-25 08:33N 48°51' W 123°27'0 0.0
2015-Jan-25 07:33N 48°51' W 123°27'2 2.0
2015-Jan-25 06:33N 48°51' W 123°24'4 4.0
2015-Jan-25 05:34N 48°53' W 123°18'1010.2
2015-Jan-25 04:33N 49°00' W 123°08'0 0.0
2015-Jan-25 03:33N 49°00' W 123°08'0 0.0
2015-Jan-25 02:34N 49°00' W 123°08'1110.6
2015-Jan-25 01:33N 48°53' W 123°19'4 4.0
2015-Jan-25 00:34N 48°49' W 123°20'5 5.0
2015-Jan-24 23:33N 48°51' W 123°27'0 0.0
2015-Jan-24 22:33N 48°51' W 123°27'1 0.8
2015-Jan-24 21:33N 48°51' W 123°26'1212.0
2015-Jan-24 20:33N 48°58' W 123°11'1 0.8
2015-Jan-24 19:34N 48°57' W 123°11'9 6.0
2015-Jan-24 18:06N 48°52' W 123°21'2 3.2
2015-Jan-24 17:34N 48°53' W 123°19'1110.6
2015-Jan-24 16:33N 49°00' W 123°08'6 6.2
2015-Jan-24 15:33N 48°55' W 123°13'10 9.4
2015-Jan-24 14:32N 48°51' W 123°27'0 0.0
2015-Jan-24 07:21N 48°51' W 123°27'4 3.4
2015-Jan-24 06:04N 48°48' W 123°22'1 2.8
2015-Jan-24 05:33N 48°48' W 123°20'4 4.2
2015-Jan-24 04:33N 48°53' W 123°19'9 9.4
2015-Jan-24 03:33N 48°59' W 123°09'1 1.2
2015-Jan-24 02:33N 49°00' W 123°08'1110.5
2015-Jan-24 01:33N 48°53' W 123°19'2 1.9
2015-Jan-24 00:32N 48°51' W 123°20'3 3.5
2015-Jan-23 23:33N 48°49' W 123°24'3 3.0
2015-Jan-23 22:32N 48°51' W 123°27'0 0.0
2015-Jan-23 21:30N 48°51' W 123°27'6 6.3
2015-Jan-23 20:33N 48°48' W 123°19'4 3.6
2015-Jan-23 19:33N 48°52' W 123°19'9 8.8
2015-Jan-23 18:33N 48°59' W 123°11'3 2.6
2015-Jan-23 17:34N 49°00' W 123°08'1010.4
2015-Jan-23 16:34N 48°53' W 123°18'2 2.0
2015-Jan-23 15:31N 48°51' W 123°20'3 3.5
2015-Jan-23 14:31N 48°50' W 123°25'1 1.5
2015-Jan-23 13:33N 48°51' W 123°27'0 0.0
2015-Jan-23 12:05N 48°51' W 123°27'0 0.0
2015-Jan-23 11:28N 48°51' W 123°27'0 0.0
2015-Jan-23 07:33N 48°51' W 123°27'1 0.4
2015-Jan-23 06:13N 48°51' W 123°26'5 7.5
2015-Jan-23 05:30N 48°48' W 123°19'5 5.1
2015-Jan-23 04:33N 48°53' W 123°19'9 9.0
2015-Jan-23 03:33N 48°59' W 123°09'2 1.6
2015-Jan-23 02:33N 49°00' W 123°08'1110.5
2015-Jan-23 01:32N 48°53' W 123°19'2 1.9
2015-Jan-23 00:30N 48°51' W 123°20'4 3.6
2015-Jan-22 23:28N 48°50' W 123°25'1 0.7
2015-Jan-22 21:29N 48°51' W 123°27'6 5.7
2015-Jan-22 20:25N 48°48' W 123°19'4 4.2
2015-Jan-22 19:33N 48°52' W 123°19'8 8.0
2015-Jan-22 18:33N 48°58' W 123°12'4 3.5
2015-Jan-22 17:33N 49°00' W 123°08'1110.7
2015-Jan-22 16:33N 48°53' W 123°19'2 2.1
2015-Jan-22 15:30N 48°51' W 123°20'3 3.4
2015-Jan-22 14:31N 48°50' W 123°25'1 1.1
2015-Jan-22 13:26N 48°51' W 123°27'0 0.0
2015-Jan-22 12:30N 48°51' W 123°27'0 0.0
2015-Jan-22 11:15N 48°51' W 123°27'0 0.0
2015-Jan-22 10:30N 48°51' W 123°27'0 0.0
2015-Jan-22 09:15N 48°51' W 123°27'0 0.0
2015-Jan-22 08:33N 48°51' W 123°27'0 0.0
2015-Jan-22 07:28N 48°51' W 123°27'0 0.0
2015-Jan-22 06:31N 48°51' W 123°27'0 0.0
2015-Jan-22 04:24N 48°51' W 123°27'0 0.0
2015-Jan-22 03:33N 48°51' W 123°27'0 0.0
2015-Jan-22 02:33N 48°51' W 123°27'0 0.0
2015-Jan-22 00:30N 48°51' W 123°27'0 0.0
2015-Jan-21 20:31N 48°51' W 123°27'0 0.0
2015-Jan-21 14:11N 48°51' W 123°27'0 0.0
2015-Jan-21 08:20N 48°51' W 123°27'0 0.0
2015-Jan-21 07:29N 48°51' W 123°27'0 0.1
2015-Jan-21 06:14N 48°51' W 123°27'6 7.6
2015-Jan-21 05:28N 48°48' W 123°19'4 3.9
2015-Jan-21 04:34N 48°52' W 123°19'9 9.1
2015-Jan-21 03:33N 48°59' W 123°10'2 2.3
2015-Jan-21 02:33N 49°00' W 123°08'1110.7
2015-Jan-21 01:33N 48°53' W 123°19'2 1.8
2015-Jan-21 00:30N 48°51' W 123°20'3 3.5
2015-Jan-20 23:33N 48°49' W 123°24'3 2.6
2015-Jan-20 22:19N 48°51' W 123°27'0 0.0
2015-Jan-20 21:28N 48°51' W 123°27'6 6.6
2015-Jan-20 20:32N 48°48' W 123°19'3 3.4
2015-Jan-20 19:33N 48°51' W 123°21'8 7.7
2015-Jan-20 18:33N 48°57' W 123°13'5 5.0
2015-Jan-20 17:34N 49°00' W 123°08'1010.3
2015-Jan-20 16:33N 48°53' W 123°18'2 2.1
2015-Jan-20 15:32N 48°51' W 123°20'4 3.6
2015-Jan-20 14:33N 48°50' W 123°25'2 1.8
2015-Jan-20 13:33N 48°51' W 123°27'0 0.0
2015-Jan-20 12:20N 48°51' W 123°27'0 0.0
2015-Jan-20 11:25N 48°51' W 123°27'0 0.0
2015-Jan-20 10:33N 48°51' W 123°27'0 0.0
2015-Jan-20 09:32N 48°51' W 123°27'0 0.0
2015-Jan-20 08:33N 48°51' W 123°27'0 0.0
2015-Jan-20 07:33N 48°51' W 123°27'1 0.9
2015-Jan-20 06:33N 48°51' W 123°26'4 3.9
2015-Jan-20 05:31N 48°51' W 123°20'7 6.9
2015-Jan-20 04:33N 48°56' W 123°14'4 3.8
2015-Jan-20 03:33N 48°58' W 123°09'10 9.7
2015-Jan-20 02:32N 48°52' W 123°20'1 0.6
2015-Jan-20 01:24N 48°51' W 123°20'0 0.1
2015-Jan-20 00:32N 48°51' W 123°20'3 3.2
2015-Jan-19 23:33N 48°49' W 123°24'3 2.7
2015-Jan-19 22:33N 48°51' W 123°27'0 0.0
2015-Jan-19 21:25N 48°51' W 123°27'6 7.0
2015-Jan-19 20:33N 48°48' W 123°19'4 3.8
2015-Jan-19 19:32N 48°52' W 123°20'8 7.8
2015-Jan-19 18:34N 48°57' W 123°12'4 4.4
2015-Jan-19 17:33N 49°00' W 123°08'10 9.8
2015-Jan-19 16:33N 48°53' W 123°18'3 2.6
2015-Jan-19 15:32N 48°51' W 123°20'4 3.7
2015-Jan-19 14:30N 48°51' W 123°26'1 0.9
2015-Jan-19 13:33N 48°51' W 123°27'0 0.0
2015-Jan-19 12:30N 48°51' W 123°27'0 0.0
2015-Jan-19 11:10N 48°51' W 123°27'0 0.0
2015-Jan-19 10:32N 48°51' W 123°27'0 0.0
2015-Jan-19 08:23N 48°51' W 123°27'0 0.0
2015-Jan-19 07:30N 48°51' W 123°27'4 4.3
2015-Jan-19 06:33N 48°52' W 123°21'1212.1
2015-Jan-19 05:33N 49°00' W 123°08'8 7.6
2015-Jan-19 04:33N 48°54' W 123°15'4 3.9
2015-Jan-19 03:33N 48°52' W 123°19'1211.5
2015-Jan-19 02:33N 49°00' W 123°08'6 5.5
2015-Jan-19 01:33N 48°56' W 123°13'7 7.2
2015-Jan-19 00:33N 48°51' W 123°21'4 3.1
2015-Jan-18 23:18N 48°51' W 123°27'0 0.0
2015-Jan-18 22:33N 48°51' W 123°27'6 6.1
2015-Jan-18 21:33N 48°48' W 123°19'4 3.9
2015-Jan-18 20:33N 48°52' W 123°20'8 7.9
2015-Jan-18 19:34N 48°58' W 123°13'4 4.2
2015-Jan-18 18:33N 49°00' W 123°08'10 9.8
2015-Jan-18 17:33N 48°53' W 123°18'3 2.6
2015-Jan-18 16:32N 48°51' W 123°20'4 3.7
2015-Jan-18 15:32N 48°50' W 123°25'1 0.4
2015-Jan-18 12:31N 48°51' W 123°27'0 0.0
2015-Jan-18 10:22N 48°51' W 123°27'0 0.0
2015-Jan-18 09:32N 48°51' W 123°27'0 0.0
2015-Jan-18 07:30N 48°51' W 123°27'5 4.6
2015-Jan-18 06:30N 48°51' W 123°20'2 2.3
2015-Jan-18 05:34N 48°53' W 123°18'1010.3
2015-Jan-18 04:33N 49°00' W 123°08'0 0.0
2015-Jan-18 03:34N 49°00' W 123°08'3 2.6
2015-Jan-18 02:33N 48°58' W 123°09'8 8.4
2015-Jan-18 01:33N 48°52' W 123°18'4 4.4
2015-Jan-18 00:33N 48°48' W 123°19'6 2.7
2015-Jan-17 22:20N 48°51' W 123°27'0 0.4
2015-Jan-17 21:32N 48°51' W 123°26'1111.4
2015-Jan-17 20:33N 48°58' W 123°13'2 2.4
2015-Jan-17 19:34N 48°59' W 123°09'1010.3
2015-Jan-17 18:33N 48°51' W 123°20'2 1.9
2015-Jan-17 17:33N 48°53' W 123°19'1110.7
2015-Jan-17 16:34N 49°00' W 123°08'5 4.6
2015-Jan-17 15:34N 48°57' W 123°12'1110.9
2015-Jan-17 14:33N 48°51' W 123°27'0 0.1
2015-Jan-17 13:31N 48°51' W 123°27'0 0.0
2015-Jan-17 12:32N 48°51' W 123°27'0 0.0
2015-Jan-17 11:31N 48°51' W 123°27'0 0.0
2015-Jan-17 10:27N 48°51' W 123°27'0 0.0
2015-Jan-17 09:27N 48°51' W 123°27'0 0.0
2015-Jan-17 08:32N 48°51' W 123°27'0 0.0
2015-Jan-17 07:30N 48°51' W 123°27'0 0.0
2015-Jan-17 06:31N 48°51' W 123°27'6 6.1
2015-Jan-17 05:33N 48°48' W 123°19'5 4.8
2015-Jan-17 04:33N 48°53' W 123°19'10 9.6
2015-Jan-17 03:33N 48°60' W 123°09'1 1.1
2015-Jan-17 02:33N 49°00' W 123°08'1110.6
2015-Jan-17 01:33N 48°53' W 123°19'  

Dump ship's entire track history